National Weather Service Raw Text Product

Displaying AFOS PIL: TAFFOD Received: 2018-03-08 11:20 UTC


756 
FTUS43 KDMX 081120
TAFFOD
TAF
KFOD 081120Z 0812/0912 31008KT P6SM SCT120
     FM090200 06003KT P6SM SCT190=